Time;durP1;ratioP1;P1;durP2;ratioP2;P2;SDS_P1;SDS_P2;PMS_P1;PMS_P2;Temp;Humidity;BMP_temperature;BMP_pressure;BME280_temperature;BME280_humidity;BME280_pressure;Samples;Min_cycle;Max_cycle;Signal;HPM_P1;HPM_P2
2021/04/26 00:03:01;;;;;;;2.60;1.60;;;;;;;3.64;71.19;102236.06;6300058;28;20055;-76
2021/04/26 00:06:02;;;;;;;7.57;1.48;;;;;;;3.57;71.56;102235.19;6300517;28;20049;-77
2021/04/26 00:09:04;;;;;;;4.10;1.45;;;;;;;3.53;71.28;102238.66;6299938;28;20503;-77
2021/04/26 00:12:05;;;;;;;3.05;1.60;;;;;;;3.51;71.37;102230.00;6300336;28;20439;-77
2021/04/26 00:15:09;;;;;;;7.18;1.38;;;;;;;3.40;71.87;102232.59;6299674;28;20045;-77
2021/04/26 00:18:10;;;;;;;4.57;1.42;;;;;;;3.40;71.88;102229.13;6300133;28;20055;-77
2021/04/26 00:21:11;;;;;;;3.38;1.58;;;;;;;3.41;71.61;102226.53;6299907;28;20045;-77
2021/04/26 00:24:12;;;;;;;2.85;1.20;;;;;;;3.34;72.33;102235.19;6299657;28;20512;-78
2021/04/26 00:27:13;;;;;;;4.07;1.60;;;;;;;3.30;71.96;102234.31;6299600;28;20083;-77
2021/04/26 00:30:17;;;;;;;2.40;1.30;;;;;;;3.28;72.79;102233.47;6299627;28;20098;-78
2021/04/26 00:33:18;;;;;;;3.38;1.13;;;;;;;3.26;72.52;102231.72;6299426;28;20523;-77
2021/04/26 00:36:19;;;;;;;2.67;1.40;;;;;;;3.13;73.08;102225.63;6299178;28;20087;-78
2021/04/26 00:39:19;;;;;;;2.92;1.50;;;;;;;3.15;72.90;102231.72;6299612;28;20056;-77
2021/04/26 00:42:20;;;;;;;2.95;1.42;;;;;;;3.08;73.95;102224.75;6299165;28;20052;-77
2021/04/26 00:45:25;;;;;;;8.48;1.75;;;;;;;3.07;73.65;102224.78;6299097;28;20086;-77
2021/04/26 00:48:26;;;;;;;4.40;1.60;;;;;;;3.05;73.45;102225.66;6299034;28;20484;-77
2021/04/26 00:51:27;;;;;;;1.77;1.15;;;;;;;3.06;73.93;102234.28;6299177;28;20068;-77
2021/04/26 00:54:28;;;;;;;5.78;1.48;;;;;;;2.96;74.07;102228.22;6299281;28;20051;-77
2021/04/26 00:57:29;;;;;;;4.60;1.77;;;;;;;2.96;74.45;102220.44;6299150;28;20397;-77
2021/04/26 01:00:32;;;;;;;3.53;1.67;;;;;;;2.94;74.13;102214.34;6299165;28;20051;-77
2021/04/26 01:03:33;;;;;;;3.95;1.60;;;;;;;2.94;74.00;102210.91;6298857;28;20516;-77
2021/04/26 01:06:34;;;;;;;3.38;1.38;;;;;;;2.87;74.62;102214.38;6299100;28;20052;-78
2021/04/26 01:09:35;;;;;;;4.90;2.20;;;;;;;2.81;74.72;102215.19;6298362;28;20110;-78
2021/04/26 01:12:49;;;;;;;4.43;1.52;;;;;;;2.69;75.11;102210.00;6298774;28;20413;-77
2021/04/26 01:16:01;;;;;;;12.05;2.00;;;;;;;2.75;74.12;102212.59;6298665;28;20497;-78
2021/04/26 01:19:09;;;;;;;4.75;1.75;;;;;;;2.65;75.12;102208.25;6298859;28;20121;-78
2021/04/26 01:22:43;;;;;;;3.03;1.48;;;;;;;2.62;74.76;102214.28;6298505;28;20048;-78
2021/04/26 01:25:45;;;;;;;4.28;1.60;;;;;;;2.59;75.54;102219.47;6298188;28;20052;-77
2021/04/26 01:28:57;;;;;;;5.15;1.83;;;;;;;2.52;76.22;102209.94;6298091;28;20048;-77
2021/04/26 01:32:17;;;;;;;3.17;1.80;;;;;;;2.53;76.19;102206.47;6298408;28;20049;-77
2021/04/26 01:35:20;;;;;;;4.38;1.50;;;;;;;2.48;75.50;102206.44;6297891;28;20059;-77
2021/04/26 01:38:26;;;;;;;3.72;1.88;;;;;;;2.41;75.78;102203.84;6297996;28;20067;-77
2021/04/26 01:41:29;;;;;;;5.70;1.73;;;;;;;2.37;75.94;102195.19;6298303;28;20083;-79
2021/04/26 01:44:31;;;;;;;3.75;2.00;;;;;;;2.35;75.81;102194.28;6297517;28;20055;-77
2021/04/26 01:47:34;;;;;;;6.43;2.17;;;;;;;2.27;76.24;102204.66;6297863;28;20052;-76
2021/04/26 01:50:37;;;;;;;8.63;3.55;;;;;;;2.23;76.68;102196.84;6297681;28;20277;-77
2021/04/26 01:53:40;;;;;;;6.93;3.22;;;;;;;2.20;75.94;102194.25;6297509;28;20094;-77
2021/04/26 01:56:40;;;;;;;11.02;3.10;;;;;;;2.09;76.92;102194.19;6297960;28;20055;-77
2021/04/26 01:59:41;;;;;;;16.52;3.00;;;;;;;2.09;76.87;102195.91;6297545;28;20044;-77
2021/04/26 02:02:44;;;;;;;9.90;3.22;;;;;;;2.05;76.57;102197.63;6297601;28;20460;-77
2021/04/26 02:05:46;;;;;;;24.55;3.30;;;;;;;2.02;76.24;102198.47;6297203;28;20056;-77
2021/04/26 02:08:47;;;;;;;8.45;2.80;;;;;;;2.00;76.69;102195.00;6297576;28;20060;-78
2021/04/26 02:11:48;;;;;;;13.20;3.20;;;;;;;1.94;77.00;102194.97;6297210;28;20531;-77
2021/04/26 02:14:50;;;;;;;7.00;2.50;;;;;;;1.89;78.32;102194.06;6297065;28;20048;-77
2021/04/26 02:17:52;;;;;;;8.13;2.80;;;;;;;1.89;77.55;102191.47;6297080;28;20102;-77
2021/04/26 02:20:52;;;;;;;7.53;3.00;;;;;;;1.82;77.39;102188.84;6297206;28;20056;-78
2021/04/26 02:23:53;;;;;;;10.10;2.58;;;;;;;1.74;77.22;102188.81;6297177;28;20131;-77
2021/04/26 02:26:58;;;;;;;8.43;2.70;;;;;;;1.71;76.97;102181.00;6297064;28;20052;-78
2021/04/26 02:29:59;;;;;;;8.98;3.85;;;;;;;1.64;76.60;102174.94;6297411;28;20496;-77
2021/04/26 02:33:04;;;;;;;7.95;3.13;;;;;;;1.61;77.51;102172.31;6296775;28;20110;-77
2021/04/26 02:36:09;;;;;;;13.95;4.32;;;;;;;1.57;77.19;102173.16;6297081;28;20049;-76
2021/04/26 02:39:17;;;;;;;11.80;3.00;;;;;;;1.53;77.07;102171.38;6296831;28;20106;-77
2021/04/26 02:42:19;;;;;;;10.75;3.60;;;;;;;1.49;77.22;102173.09;6296897;28;20048;-77
2021/04/26 02:45:25;;;;;;;10.65;3.38;;;;;;;1.44;77.07;102173.91;6296536;28;20065;-77
2021/04/26 02:48:27;;;;;;;9.40;3.55;;;;;;;1.40;77.26;102173.00;6296730;28;20040;-77
2021/04/26 02:51:29;;;;;;;8.23;3.15;;;;;;;1.41;77.96;102169.59;6296707;28;20404;-77
2021/04/26 02:54:30;;;;;;;8.02;2.72;;;;;;;1.37;77.38;102164.38;6296607;28;20059;-77
2021/04/26 02:57:33;;;;;;;4.82;2.42;;;;;;;1.37;77.71;102166.97;6296609;28;20133;-77
2021/04/26 03:00:35;;;;;;;11.68;2.25;;;;;;;1.34;77.95;102166.94;6296504;28;20049;-78
2021/04/26 03:03:38;;;;;;;4.32;2.10;;;;;;;1.06;77.40;102163.25;6296689;28;20048;-76
2021/04/26 03:06:39;;;;;;;9.63;2.13;;;;;;;1.07;78.25;102159.81;6296224;28;20060;-77
2021/04/26 03:09:41;;;;;;;7.53;2.10;;;;;;;1.06;78.72;102152.91;6289894;28;20078;-76
2021/04/26 03:12:46;;;;;;;4.93;1.70;;;;;;;1.11;78.86;102153.81;6280903;28;20058;-76
2021/04/26 03:15:47;;;;;;;6.88;2.70;;;;;;;1.17;78.46;102149.53;6286625;28;20427;-77
2021/04/26 03:18:49;;;;;;;4.78;1.90;;;;;;;1.10;79.17;102146.91;6296235;28;20082;-77
2021/04/26 03:21:51;;;;;;;6.05;2.30;;;;;;;1.13;78.53;102142.59;6296311;28;20098;-77
2021/04/26 03:24:52;;;;;;;9.70;2.33;;;;;;;1.04;79.19;102144.25;6296099;28;20098;-77
2021/04/26 03:27:54;;;;;;;8.15;2.60;;;;;;;1.07;79.39;102141.69;6296488;28;20053;-77
2021/04/26 03:30:57;;;;;;;5.55;1.92;;;;;;;1.14;78.38;102133.13;6299301;28;20523;-78
2021/04/26 03:33:59;;;;;;;5.90;1.73;;;;;;;1.00;79.00;102135.63;6300940;28;20044;-77
2021/04/26 03:37:01;;;;;;;6.30;1.92;;;;;;;1.02;79.35;102136.47;6300700;28;20048;-78
2021/04/26 03:40:02;;;;;;;5.05;1.75;;;;;;;1.05;79.00;102143.41;6300425;28;20053;-77
2021/04/26 03:43:03;;;;;;;10.63;2.35;;;;;;;1.02;79.61;102139.94;6300633;28;20052;-77
2021/04/26 03:46:04;;;;;;;4.72;1.80;;;;;;;1.03;79.29;102122.69;6298207;28;20385;-77
2021/04/26 03:49:05;;;;;;;3.83;1.60;;;;;;;0.90;79.43;102128.59;6296366;28;20056;-77
2021/04/26 03:52:07;;;;;;;5.78;1.80;;;;;;;0.89;80.13;102124.28;6300176;28;20512;-77
2021/04/26 03:55:11;;;;;;;7.47;1.98;;;;;;;0.93;78.91;102121.72;6296834;28;20117;-77
2021/04/26 03:58:12;;;;;;;10.85;1.80;;;;;;;0.95;78.79;102114.88;6300309;28;20492;-77
2021/04/26 04:01:13;;;;;;;4.00;1.60;;;;;;;0.91;78.96;102122.56;6300615;28;20131;-77
2021/04/26 04:04:14;;;;;;;6.95;2.10;;;;;;;0.84;80.04;102116.47;6300084;28;20048;-76
2021/04/26 04:07:15;;;;;;;4.45;1.50;;;;;;;0.88;79.14;102109.63;6300411;28;20094;-77
2021/04/26 04:10:17;;;;;;;8.75;2.10;;;;;;;0.90;79.75;102115.66;6300169;28;20489;-76
2021/04/26 04:13:18;;;;;;;3.80;1.85;;;;;;;0.90;80.36;102113.94;6299913;28;20048;-77
2021/04/26 04:16:19;;;;;;;7.35;1.73;;;;;;;0.86;80.68;102114.75;6300304;28;20048;-77
2021/04/26 04:19:21;;;;;;;6.20;1.92;;;;;;;0.89;80.21;102103.59;6299699;28;20135;-76
2021/04/26 04:22:22;;;;;;;8.05;1.90;;;;;;;0.90;80.42;102111.34;6299968;28;20044;-78
2021/04/26 04:25:23;;;;;;;12.60;2.28;;;;;;;0.90;81.24;102113.94;6299463;28;20059;-78
2021/04/26 04:28:24;;;;;;;8.15;2.28;;;;;;;0.91;80.76;102114.78;6299970;28;20044;-77
2021/04/26 04:31:25;;;;;;;5.30;1.80;;;;;;;0.89;80.90;102114.78;6299669;28;20048;-76
2021/04/26 04:34:27;;;;;;;4.13;1.60;;;;;;;0.85;80.82;102119.94;6299383;28;20053;-78
2021/04/26 04:37:28;;;;;;;7.75;2.30;;;;;;;0.89;81.73;102119.97;6299489;28;20074;-76
2021/04/26 04:40:29;;;;;;;4.00;1.83;;;;;;;0.84;81.90;102111.31;6298978;28;20525;-76
2021/04/26 04:43:30;;;;;;;7.90;2.10;;;;;;;0.89;82.63;102116.53;6299351;28;20068;-77
2021/04/26 04:46:31;;;;;;;7.15;2.13;;;;;;;0.93;81.81;102118.28;6293455;22;20046;-77
2021/04/26 04:49:33;;;;;;;11.70;2.28;;;;;;;0.96;82.64;102114.00;6251690;28;20050;-77
2021/04/26 04:52:34;;;;;;;6.05;2.17;;;;;;;0.96;82.66;102106.25;6274731;28;20044;-77
2021/04/26 04:55:35;;;;;;;7.90;1.98;;;;;;;1.05;82.29;102104.59;6257476;28;20595;-77
2021/04/26 04:58:35;;;;;;;9.60;2.10;;;;;;;1.04;82.46;102108.88;6249621;28;20102;-76
2021/04/26 05:01:36;;;;;;;10.20;2.10;;;;;;;1.11;82.38;102105.50;6258228;28;20079;-77
2021/04/26 05:04:38;;;;;;;4.32;1.90;;;;;;;1.11;82.89;102100.31;6273518;28;20136;-77
2021/04/26 05:07:39;;;;;;;4.85;1.85;;;;;;;1.17;82.44;102105.53;6256007;28;20521;-77
2021/04/26 05:10:40;;;;;;;5.90;2.22;;;;;;;1.24;82.10;102101.28;6249410;28;20045;-76
2021/04/26 05:13:41;;;;;;;13.38;2.38;;;;;;;1.25;82.36;102098.69;6248775;28;20049;-76
2021/04/26 05:16:41;;;;;;;9.95;2.40;;;;;;;1.39;82.49;102092.72;6248841;28;20656;-76
2021/04/26 05:19:44;;;;;;;6.72;2.40;;;;;;;1.44;82.53;102089.28;6248675;28;20045;-76
2021/04/26 05:22:44;;;;;;;8.77;2.25;;;;;;;1.48;82.38;102092.78;6248749;28;20053;-76
2021/04/26 05:25:49;;;;;;;6.43;2.63;;;;;;;1.51;82.59;102092.81;6248364;28;20056;-77
2021/04/26 05:28:50;;;;;;;10.70;2.45;;;;;;;1.53;82.33;102091.94;6248551;28;20508;-76
2021/04/26 05:31:51;;;;;;;4.22;2.08;;;;;;;1.58;82.46;102085.94;6248335;28;20049;-77
2021/04/26 05:34:52;;;;;;;8.35;2.13;;;;;;;1.61;82.58;102092.00;6248916;28;20053;-76
2021/04/26 05:37:54;;;;;;;4.90;2.30;;;;;;;1.68;83.14;102083.41;6248651;28;20045;-77
2021/04/26 05:40:54;;;;;;;18.67;4.47;;;;;;;1.74;82.79;102088.59;6248808;28;20060;-77
2021/04/26 05:43:55;;;;;;;4.78;2.28;;;;;;;1.72;82.91;102082.53;6248307;28;20049;-76
2021/04/26 05:46:56;;;;;;;7.10;2.38;;;;;;;1.82;83.23;102080.88;6247895;28;20045;-77
2021/04/26 05:49:58;;;;;;;10.10;2.90;;;;;;;1.99;82.57;102086.09;6248086;28;20053;-76
2021/04/26 05:52:59;;;;;;;11.85;2.75;;;;;;;2.14;82.55;102074.94;6246995;28;20056;-77
2021/04/26 05:56:00;;;;;;;5.43;2.40;;;;;;;2.18;82.41;102076.66;6248059;28;20045;-77
2021/04/26 05:59:01;;;;;;;8.15;2.53;;;;;;;2.23;82.20;102077.56;6247687;28;20049;-76
2021/04/26 06:02:02;;;;;;;3.67;2.05;;;;;;;2.29;82.16;102083.59;6247891;28;20053;-77
2021/04/26 06:05:05;;;;;;;6.20;2.30;;;;;;;2.41;81.38;102081.91;6247417;28;20053;-76
2021/04/26 06:08:06;;;;;;;8.88;3.50;;;;;;;2.45;81.15;102076.75;6247474;28;20417;-77
2021/04/26 06:11:07;;;;;;;15.85;5.55;;;;;;;2.63;80.71;102077.59;6247769;28;20141;-77
2021/04/26 06:14:08;;;;;;;12.43;5.07;;;;;;;2.71;80.62;102079.34;6247644;28;20052;-77
2021/04/26 06:17:09;;;;;;;7.18;3.40;;;;;;;2.90;79.35;102082.81;6247375;28;20128;-77
2021/04/26 06:20:12;;;;;;;4.55;2.38;;;;;;;2.95;77.83;102080.19;6247112;28;20045;-77
2021/04/26 06:23:13;;;;;;;5.85;2.15;;;;;;;2.95;76.53;102082.81;6247328;28;20137;-76
2021/04/26 06:26:14;;;;;;;4.50;2.10;;;;;;;3.08;76.82;102074.13;6247039;28;20061;-76
2021/04/26 06:29:15;;;;;;;9.00;2.40;;;;;;;3.18;75.22;102080.19;6248064;28;20124;-77
2021/04/26 06:32:16;;;;;;;5.45;2.08;;;;;;;3.24;72.96;102075.00;6247501;28;20050;-76
2021/04/26 06:35:18;;;;;;;5.50;2.33;;;;;;;3.26;74.58;102066.31;6247058;28;20053;-75
2021/04/26 06:38:20;;;;;;;6.03;2.53;;;;;;;3.36;73.96;102074.97;6246922;28;20567;-76
2021/04/26 06:41:22;;;;;;;9.52;2.10;;;;;;;3.46;74.03;102066.28;6247010;28;20050;-76
2021/04/26 06:44:23;;;;;;;7.68;2.35;;;;;;;3.58;74.17;102065.38;6246722;28;20057;-75
2021/04/26 06:47:24;;;;;;;6.70;1.80;;;;;;;3.70;72.25;102067.06;6246397;28;20398;-76
2021/04/26 06:50:26;;;;;;;9.02;2.17;;;;;;;3.81;71.30;102060.09;6246758;28;20107;-76
2021/04/26 06:53:27;;;;;;;9.10;2.28;;;;;;;3.97;70.76;102063.50;6246376;28;20700;-76
2021/04/26 06:56:30;;;;;;;12.43;2.20;;;;;;;3.99;70.50;102070.41;6246784;28;20057;-76
2021/04/26 06:59:31;;;;;;;11.38;2.55;;;;;;;4.05;70.88;102064.31;6246633;28;20056;-76
2021/04/26 07:02:32;;;;;;;16.67;2.53;;;;;;;4.08;71.62;102061.69;6246679;28;20399;-76
2021/04/26 07:05:33;;;;;;;15.70;2.45;;;;;;;4.13;71.42;102059.06;6250757;28;20046;-77
2021/04/26 07:08:34;;;;;;;4.85;1.95;;;;;;;4.23;70.61;102064.22;6251728;28;20046;-76
2021/04/26 07:11:36;;;;;;;5.80;2.33;;;;;;;4.40;69.23;102061.50;6266203;28;20456;-76
2021/04/26 07:14:37;;;;;;;7.05;2.03;;;;;;;4.50;68.36;102054.50;6266950;28;20053;-76
2021/04/26 07:17:38;;;;;;;8.35;2.35;;;;;;;4.63;67.25;102057.88;6257215;28;20044;-77
2021/04/26 07:20:40;;;;;;;8.80;2.30;;;;;;;4.62;67.94;102049.19;6275035;28;20049;-77
2021/04/26 07:23:41;;;;;;;10.68;2.03;;;;;;;4.76;66.66;102043.88;6272573;28;20084;-75
2021/04/26 07:26:42;;;;;;;8.77;2.17;;;;;;;4.75;67.08;102043.00;6275674;28;20057;-75
2021/04/26 07:29:43;;;;;;;13.00;2.17;;;;;;;4.78;66.26;102044.75;6276118;28;20080;-76
2021/04/26 07:32:45;;;;;;;21.77;2.20;;;;;;;4.91;64.79;102043.75;6276105;28;20056;-75
2021/04/26 07:35:46;;;;;;;3.58;1.50;;;;;;;5.06;63.68;102042.75;6288839;28;20183;-76
2021/04/26 07:38:47;;;;;;;11.00;2.45;;;;;;;5.22;62.98;102031.31;6300830;28;20072;-76
2021/04/26 07:41:48;;;;;;;11.85;1.80;;;;;;;5.21;63.95;102034.75;6300967;28;20128;-76
2021/04/26 07:44:49;;;;;;;10.00;1.67;;;;;;;5.31;61.58;102039.03;6300075;28;20048;-76
2021/04/26 07:47:51;;;;;;;4.60;1.60;;;;;;;5.41;61.15;102042.38;6300147;28;20048;-74
2021/04/26 07:50:52;;;;;;;5.90;1.60;;;;;;;5.46;59.92;102042.34;6300282;28;20052;-75
2021/04/26 07:53:53;;;;;;;6.05;1.50;;;;;;;5.54;55.84;102038.75;6277399;28;20052;-76
2021/04/26 07:56:54;;;;;;;8.65;1.73;;;;;;;5.63;56.02;102032.53;6273968;28;20548;-76
2021/04/26 07:59:55;;;;;;;6.53;1.45;;;;;;;5.74;57.81;102042.88;6271101;28;20489;-76
2021/04/26 08:02:56;;;;;;;7.65;1.33;;;;;;;5.82;55.99;102035.81;6249808;28;20128;-76
2021/04/26 08:05:57;;;;;;;5.80;1.50;;;;;;;5.94;54.04;102029.59;6258574;28;20080;-76
2021/04/26 08:08:58;;;;;;;2.63;1.45;;;;;;;6.03;54.63;102021.63;6262359;28;20486;-75
2021/04/26 08:11:59;;;;;;;4.72;1.45;;;;;;;6.04;54.03;102032.06;6272164;28;20044;-76
2021/04/26 08:15:00;;;;;;;4.78;1.48;;;;;;;6.12;50.74;102031.09;6269237;28;20045;-76
2021/04/26 08:18:01;;;;;;;4.03;1.00;;;;;;;6.54;45.20;102016.50;6266229;28;20045;-76
2021/04/26 08:21:03;;;;;;;5.45;1.38;;;;;;;6.45;45.61;102022.75;6274006;28;20060;-76
2021/04/26 08:24:06;;;;;;;5.90;0.90;;;;;;;6.44;45.06;102021.00;6271216;28;20497;-76
2021/04/26 08:27:06;;;;;;;1.55;0.80;;;;;;;6.67;46.02;102022.41;6273715;28;20095;-77
2021/04/26 08:30:09;;;;;;;1.70;0.82;;;;;;;6.82;45.28;102015.19;6274462;28;20083;-77
2021/04/26 08:33:10;;;;;;;5.05;0.95;;;;;;;6.98;45.19;102007.06;6274015;28;20165;-76
2021/04/26 08:36:12;;;;;;;1.38;0.90;;;;;;;6.81;45.18;102016.06;6272658;28;20417;-77
2021/04/26 08:39:14;;;;;;;5.45;1.17;;;;;;;6.80;45.02;102008.25;6273147;28;20051;-77
2021/04/26 08:42:16;;;;;;;4.15;1.08;;;;;;;6.82;45.51;102014.31;6272793;28;20052;-76
2021/04/26 08:45:19;;;;;;;2.40;1.00;;;;;;;7.15;45.44;102004.13;6273942;28;20102;-76
2021/04/26 08:48:24;;;;;;;4.13;1.20;;;;;;;7.06;43.77;102003.41;6273773;28;20424;-77
2021/04/26 08:51:25;;;;;;;9.18;1.33;;;;;;;7.00;43.43;101995.69;6272714;28;20114;-76
2021/04/26 08:54:26;;;;;;;2.17;0.90;;;;;;;7.44;42.82;101998.31;6273090;28;20048;-77
2021/04/26 08:57:27;;;;;;;5.70;1.05;;;;;;;7.54;42.41;101992.00;6273263;28;20052;-77
2021/04/26 09:00:29;;;;;;;4.38;0.85;;;;;;;7.78;41.27;101994.13;6268442;28;20094;-76
2021/04/26 09:03:31;;;;;;;2.80;0.85;;;;;;;7.60;40.26;101992.75;6271231;28;20049;-76
2021/04/26 09:06:52;;;;;;;2.50;0.90;;;;;;;7.64;41.24;101983.09;6269034;28;20084;-77
2021/04/26 09:09:54;;;;;;;2.47;0.73;;;;;;;7.84;40.05;101993.13;6270798;28;20037;-78
2021/04/26 09:12:54;;;;;;;9.57;0.90;;;;;;;7.79;39.76;101982.75;6272883;28;20459;-78
2021/04/26 09:15:57;;;;;;;4.63;0.73;;;;;;;7.79;39.70;101987.13;6271326;28;20045;-77
2021/04/26 09:18:59;;;;;;;4.50;1.00;;;;;;;8.03;40.80;101985.72;6274270;28;20049;-78
2021/04/26 09:22:01;;;;;;;2.38;1.02;;;;;;;8.27;40.73;101981.69;6276334;28;20083;-78
2021/04/26 09:25:18;;;;;;;1.58;0.75;;;;;;;8.19;39.08;101979.25;6274321;28;20064;-77
2021/04/26 09:28:20;;;;;;;2.33;0.90;;;;;;;8.14;39.72;101975.88;6297694;28;20056;-77
2021/04/26 09:31:21;;;;;;;4.78;1.90;;;;;;;8.23;39.32;101966.94;6299168;28;20519;-78
2021/04/26 09:34:29;;;;;;;2.53;0.70;;;;;;;8.48;36.66;101957.59;6301497;28;20080;-79
2021/04/26 09:37:30;;;;;;;2.95;0.88;;;;;;;8.35;37.53;101957.00;6300547;28;20055;-78
2021/04/26 09:40:31;;;;;;;7.30;1.40;;;;;;;8.41;37.93;101949.94;6300460;28;20186;-78
2021/04/26 09:43:32;;;;;;;2.05;0.95;;;;;;;8.42;38.29;101949.91;6294171;28;20151;-78
2021/04/26 09:46:42;;;;;;;1.92;0.80;;;;;;;8.61;40.60;101942.44;6272665;28;20049;-78
2021/04/26 09:50:02;;;;;;;1.50;0.80;;;;;;;8.69;39.02;101942.25;6274033;28;20044;-78
2021/04/26 09:53:09;;;;;;;1.45;0.98;;;;;;;8.79;39.21;101934.09;6274410;28;20103;-77
2021/04/26 09:56:11;;;;;;;1.70;0.75;;;;;;;8.80;37.39;101932.31;6272763;28;20053;-77
2021/04/26 09:59:15;;;;;;;1.13;0.77;;;;;;;9.07;36.95;101928.94;6272364;28;20041;-78
2021/04/26 10:02:16;;;;;;;1.58;0.90;;;;;;;9.35;36.43;101923.75;6273992;28;20420;-77
2021/04/26 10:05:18;;;;;;;2.45;0.85;;;;;;;9.07;35.49;101928.94;6288143;28;20076;-77
2021/04/26 10:08:19;;;;;;;1.48;0.80;;;;;;;9.01;37.24;101926.50;6297295;28;20135;-77
2021/04/26 10:11:22;;;;;;;4.18;1.13;;;;;;;9.19;39.26;101911.16;6297109;28;20045;-73
2021/04/26 10:14:23;;;;;;;3.50;1.00;;;;;;;9.62;36.70;101922.06;6281535;28;20460;-76
2021/04/26 10:17:25;;;;;;;7.55;1.08;;;;;;;9.79;37.21;101911.06;6271429;28;20058;-76
2021/04/26 10:20:34;;;;;;;5.45;1.15;;;;;;;9.75;36.33;101913.81;6271372;28;20048;-76
2021/04/26 10:23:38;;;;;;;2.78;1.20;;;;;;;9.72;35.15;101909.56;6271849;28;20074;-77
2021/04/26 10:26:45;;;;;;;2.53;1.13;;;;;;;9.74;35.72;101907.72;6272089;28;20479;-76
2021/04/26 10:30:00;;;;;;;1.85;1.00;;;;;;;9.52;34.55;101909.28;6271695;28;20049;-76
2021/04/26 10:33:03;;;;;;;10.80;1.38;;;;;;;9.55;35.77;101907.44;6271086;28;20095;-77
2021/04/26 10:36:04;;;;;;;4.00;1.20;;;;;;;9.39;36.58;101895.66;6271063;28;20500;-77
2021/04/26 10:39:09;;;;;;;5.00;1.33;;;;;;;9.46;37.13;101891.13;6271576;28;20559;-77
2021/04/26 10:42:11;;;;;;;10.00;1.55;;;;;;;9.71;37.04;101880.69;6271475;28;20521;-78
2021/04/26 10:45:26;;;;;;;1.85;1.10;;;;;;;10.08;38.49;101880.38;6271723;28;20049;-77
2021/04/26 10:48:27;;;;;;;2.22;0.88;;;;;;;10.21;35.18;101875.56;6272352;28;20057;-77
2021/04/26 10:51:28;;;;;;;2.60;1.05;;;;;;;10.07;35.03;101876.88;6273070;28;20053;-77
2021/04/26 10:54:41;;;;;;;2.00;1.00;;;;;;;10.20;35.53;101868.59;6270502;28;20079;-77
2021/04/26 10:57:47;;;;;;;3.25;1.05;;;;;;;10.39;34.83;101864.47;6270913;28;20139;-75
2021/04/26 11:00:49;;;;;;;2.08;0.88;;;;;;;10.66;33.33;101857.38;6268794;28;20406;-75
2021/04/26 11:03:49;;;;;;;2.83;0.85;;;;;;;10.26;35.15;101853.50;6270815;28;20523;-75
2021/04/26 11:07:01;;;;;;;1.23;0.95;;;;;;;10.27;35.34;101854.41;6291876;22;20080;-79
2021/04/26 11:13:40;;;;;;;2.25;1.55;;;;;;;9.79;34.87;101844.56;6342011;27;20348;-78
2021/04/26 11:16:55;;;;;;;4.25;1.20;;;;;;;9.80;35.30;101841.03;6343130;28;20048;-79
2021/04/26 11:20:12;;;;;;;2.10;1.23;;;;;;;9.96;35.79;101828.28;6343230;28;20066;-77
2021/04/26 11:23:40;;;;;;;1.90;0.85;;;;;;;10.55;35.53;101838.53;6341672;28;20104;-77
2021/04/26 11:26:41;;;;;;;2.83;1.20;;;;;;;10.84;35.44;101824.31;6304112;28;20044;-79
2021/04/26 11:30:14;;;;;;;3.05;1.20;;;;;;;11.39;37.72;101814.28;6302154;28;20076;-76
2021/04/26 11:33:19;;;;;;;1.23;0.80;;;;;;;11.96;36.86;101815.53;6304252;28;20044;-79
2021/04/26 11:36:21;;;;;;;5.32;1.00;;;;;;;12.42;32.30;101805.63;6306719;28;20056;-78
2021/04/26 11:39:27;;;;;;;4.82;1.38;;;;;;;12.38;30.57;101806.69;6304389;28;20060;-79
2021/04/26 11:42:30;;;;;;;3.13;1.10;;;;;;;12.58;32.36;101806.69;6306231;28;20492;-79
2021/04/26 11:45:33;;;;;;;3.13;1.65;;;;;;;12.72;31.73;101789.34;6305460;28;20048;-78
2021/04/26 11:48:35;;;;;;;1.95;1.17;;;;;;;13.02;34.98;101797.63;6304910;28;20070;-79
2021/04/26 11:51:36;;;;;;;4.70;1.30;;;;;;;13.09;30.55;101781.47;6306147;28;20041;-79
2021/04/26 11:54:37;;;;;;;1.88;1.05;;;;;;;13.35;30.67;101784.66;6310254;28;20516;-79
2021/04/26 11:57:43;;;;;;;5.03;1.30;;;;;;;13.09;31.64;101786.72;6319101;28;20056;-80
2021/04/26 12:00:45;;;;;;;3.65;1.13;;;;;;;13.31;32.04;101765.50;6318925;28;20048;-82
2021/04/26 12:03:54;;;;;;;2.47;1.30;;;;;;;14.03;33.01;101759.22;6303204;28;20052;-81
2021/04/26 12:06:55;;;;;;;1.45;1.00;;;;;;;14.11;30.36;101757.03;6317697;28;20036;-75
2021/04/26 12:09:57;;;;;;;2.63;1.25;;;;;;;13.99;31.18;101749.75;6317212;28;20045;-79
2021/04/26 12:13:01;;;;;;;2.92;1.17;;;;;;;14.30;31.90;101737.56;6317094;28;20048;-80
2021/04/26 12:16:03;;;;;;;3.15;1.10;;;;;;;14.50;28.52;101740.03;6317760;28;20048;-80
2021/04/26 12:19:05;;;;;;;2.10;1.00;;;;;;;14.74;26.95;101739.66;6318068;28;20059;-80
2021/04/26 12:22:06;;;;;;;4.60;1.05;;;;;;;14.24;27.80;101730.81;6316976;28;20117;-80
2021/04/26 12:25:09;;;;;;;2.08;1.05;;;;;;;14.50;28.58;101731.25;6300254;28;20105;-79
2021/04/26 12:28:13;;;;;;;2.17;1.13;;;;;;;14.42;28.60;101718.41;6299209;28;20409;-80
2021/04/26 12:31:24;;;;;;;2.85;1.23;;;;;;;14.49;29.29;101719.84;6295401;28;20099;-79
2021/04/26 12:34:24;;;;;;;7.13;1.10;;;;;;;14.16;28.64;101709.22;6287902;28;20048;-78
2021/04/26 12:37:28;;;;;;;4.32;1.15;;;;;;;14.01;27.40;101710.03;6298070;28;20056;-78
2021/04/26 12:40:32;;;;;;;1.75;1.17;;;;;;;13.97;26.83;101706.69;6299477;28;20041;-77
2021/04/26 12:43:37;;;;;;;4.03;1.35;;;;;;;13.90;28.65;101711.44;6300272;28;20059;-78
2021/04/26 12:46:40;;;;;;;6.97;1.63;;;;;;;14.34;28.14;101702.94;6300231;28;20094;-79
2021/04/26 12:49:41;;;;;;;4.30;1.70;;;;;;;14.60;30.83;101703.38;6302023;28;20052;-79
2021/04/26 12:52:43;;;;;;;3.35;1.50;;;;;;;15.08;28.61;101691.84;6301109;28;20071;-79
2021/04/26 12:55:47;;;;;;;2.13;1.10;;;;;;;15.36;29.52;101691.09;6299851;28;20052;-80
2021/04/26 12:58:52;;;;;;;3.53;0.88;;;;;;;16.04;27.68;101684.44;6297415;28;20640;-79
2021/04/26 13:02:01;;;;;;;3.15;1.10;;;;;;;15.90;27.66;101686.13;6297583;28;20044;-78
2021/04/26 13:05:03;;;;;;;22.92;2.08;;;;;;;16.26;28.85;101678.66;6297814;28;20447;-79
2021/04/26 13:08:05;;;;;;;2.08;1.40;;;;;;;16.70;26.51;101668.72;6291470;28;20501;-78
2021/04/26 13:11:08;;;;;;;8.98;1.40;;;;;;;16.25;27.42;101667.19;6285029;28;20068;-78
2021/04/26 13:14:11;;;;;;;1.13;0.90;;;;;;;16.24;25.84;101660.19;6299591;28;20049;-79
2021/04/26 13:17:13;;;;;;;1.40;0.95;;;;;;;16.42;26.78;101648.41;6287351;28;20049;-78
2021/04/26 13:20:22;;;;;;;5.15;1.25;;;;;;;16.72;26.83;101642.13;6284334;28;20048;-78
2021/04/26 13:23:25;;;;;;;3.38;1.10;;;;;;;16.58;25.40;101642.13;6299130;28;20455;-79
2021/04/26 13:26:28;;;;;;;6.68;1.33;;;;;;;16.39;26.36;101639.78;6299756;28;20048;-78
2021/04/26 13:29:30;;;;;;;8.52;1.35;;;;;;;16.31;25.23;101642.09;6300104;28;20067;-77
2021/04/26 13:32:32;;;;;;;6.45;1.50;;;;;;;16.44;25.96;101640.34;6299333;28;20047;-73
2021/04/26 13:35:33;;;;;;;13.80;1.83;;;;;;;16.67;29.10;101631.78;6297807;28;20105;-78
2021/04/26 13:38:34;;;;;;;3.42;1.55;;;;;;;16.79;27.53;101627.50;6299527;28;20056;-77
2021/04/26 13:41:36;;;;;;;5.70;1.40;;;;;;;16.81;26.76;101622.97;6299431;28;20053;-78
2021/04/26 13:44:36;;;;;;;6.13;1.00;;;;;;;17.07;25.74;101625.69;6298294;28;20049;-77
2021/04/26 13:47:38;;;;;;;2.42;1.08;;;;;;;16.61;24.65;101618.03;6298671;28;20098;-78
2021/04/26 13:50:39;;;;;;;6.00;2.15;;;;;;;15.51;27.63;101620.44;6298391;28;20056;-77
2021/04/26 13:53:40;;;;;;;6.95;2.13;;;;;;;15.26;28.24;101615.78;6297997;28;20060;-76
2021/04/26 13:56:41;;;;;;;11.88;1.60;;;;;;;15.20;29.25;101618.75;6298013;28;20122;-76
2021/04/26 13:59:42;;;;;;;3.30;1.20;;;;;;;15.30;29.37;101605.81;6298012;28;20090;-78
2021/04/26 14:02:45;;;;;;;9.35;1.42;;;;;;;15.49;26.74;101609.09;6297770;28;20491;-76
2021/04/26 14:05:46;;;;;;;6.57;1.67;;;;;;;14.75;28.99;101606.41;6297780;28;20048;-77
2021/04/26 14:08:47;;;;;;;5.07;1.33;;;;;;;14.35;30.09;101601.53;6297729;28;20053;-77
2021/04/26 14:11:48;;;;;;;4.47;1.63;;;;;;;14.34;29.29;101597.16;6298176;28;20507;-77
2021/04/26 14:14:48;;;;;;;6.97;1.67;;;;;;;13.98;31.33;101599.19;6297949;28;20049;-77
2021/04/26 14:17:50;;;;;;;6.93;1.52;;;;;;;13.82;31.72;101592.09;6297611;28;20052;-76
2021/04/26 14:20:52;;;;;;;9.95;1.55;;;;;;;13.92;32.48;101592.44;6297528;28;20053;-76